Time;durP1;ratioP1;P1;durP2;ratioP2;P2;SDS_P1;SDS_P2;PMS_P1;PMS_P2;Temp;Humidity;BMP_temperature;BMP_pressure;BME280_temperature;BME280_humidity;BME280_pressure;Samples;Min_cycle;Max_cycle;Signal;HPM_P1;HPM_P2
2022/10/05 00:01:42;;;;;;;14.70;8.00;;;;;;;11.47;100.00;98701.97;5049490;28;20064;-75
2022/10/05 00:04:15;;;;;;;16.55;7.45;;;;;;;11.47;100.00;98701.97;5050004;28;20071;-75
2022/10/05 00:06:43;;;;;;;14.57;7.15;;;;;;;11.47;100.00;98701.97;5050143;28;20053;-75
2022/10/05 00:09:17;;;;;;;14.93;7.18;;;;;;;11.47;100.00;98701.97;5049746;28;20074;-74
2022/10/05 00:11:45;;;;;;;18.40;7.40;;;;;;;11.47;100.00;98701.97;5050796;28;20049;-74
2022/10/05 00:14:16;;;;;;;17.58;7.40;;;;;;;11.47;100.00;98701.97;5049861;28;20399;-75
2022/10/05 00:16:44;;;;;;;17.92;7.47;;;;;;;11.47;100.00;98701.97;5049627;28;20157;-74
2022/10/05 00:19:20;;;;;;;15.50;7.32;;;;;;;11.47;100.00;98701.97;5049859;28;20041;-74
2022/10/05 00:21:47;;;;;;;14.68;8.05;;;;;;;11.47;100.00;98701.97;5049528;28;20056;-75
2022/10/05 00:24:17;;;;;;;17.42;7.47;;;;;;;11.47;100.00;98701.97;5049778;28;20044;-75
2022/10/05 00:26:45;;;;;;;18.33;7.65;;;;;;;11.47;100.00;98701.97;5049580;28;20049;-74
2022/10/05 00:29:21;;;;;;;15.07;7.72;;;;;;;11.47;100.00;98701.97;5049269;28;20053;-74
2022/10/05 00:31:49;;;;;;;15.48;7.50;;;;;;;11.47;100.00;98701.97;5049956;28;20053;-75
2022/10/05 00:34:18;;;;;;;16.60;8.00;;;;;;;11.47;100.00;98701.97;5049564;28;20391;-75
2022/10/05 00:36:46;;;;;;;16.77;7.95;;;;;;;11.47;100.00;98701.97;5049490;28;20041;-74
2022/10/05 00:39:13;;;;;;;19.42;7.72;;;;;;;11.47;100.00;98701.97;5049490;28;20504;-74
2022/10/05 00:41:50;;;;;;;16.30;8.00;;;;;;;11.47;100.00;98701.97;5051666;28;20045;-75
2022/10/05 00:44:32;;;;;;;16.55;6.97;;;;;;;11.47;100.00;98701.97;5053901;28;20082;-74
2022/10/05 00:47:08;;;;;;;15.10;7.28;;;;;;;11.47;100.00;98701.97;5054091;28;20045;-74
2022/10/05 00:49:50;;;;;;;17.45;7.30;;;;;;;11.47;100.00;98701.97;5052718;28;20441;-75
2022/10/05 00:52:25;;;;;;;16.63;7.22;;;;;;;11.47;100.00;98701.97;5052440;28;20098;-75
2022/10/05 00:55:00;;;;;;;17.75;7.93;;;;;;;11.47;100.00;98701.97;5052837;28;20052;-75
2022/10/05 00:57:35;;;;;;;16.13;7.40;;;;;;;11.47;100.00;98701.97;5054223;28;20057;-75
2022/10/05 01:00:07;;;;;;;17.52;7.55;;;;;;;11.47;100.00;98701.97;5052419;28;20050;-74
2022/10/05 01:02:43;;;;;;;18.80;7.43;;;;;;;11.47;100.00;98701.97;5052566;28;20045;-74
2022/10/05 01:05:18;;;;;;;17.73;7.80;;;;;;;11.47;100.00;98701.97;5053332;28;20053;-74
2022/10/05 01:07:50;;;;;;;18.38;7.63;;;;;;;11.47;100.00;98701.97;5052485;28;20045;-74
2022/10/05 01:10:23;;;;;;;20.55;7.65;;;;;;;11.47;100.00;98701.97;5053911;28;20049;-74
2022/10/05 01:12:56;;;;;;;18.38;7.57;;;;;;;11.47;100.00;98701.97;5052259;28;20053;-75
2022/10/05 01:15:28;;;;;;;17.42;7.78;;;;;;;11.47;100.00;98701.97;5052280;28;20045;-75
2022/10/05 01:17:59;;;;;;;24.27;7.57;;;;;;;11.47;100.00;98701.97;5049138;28;20053;-75
2022/10/05 01:20:34;;;;;;;23.33;7.80;;;;;;;11.47;100.00;98701.97;5044434;28;20049;-74
2022/10/05 01:23:23;;;;;;;16.63;7.13;;;;;;;11.47;100.00;98701.97;5041607;28;20052;-75
2022/10/05 01:26:00;;;;;;;15.82;6.82;;;;;;;11.47;100.00;98701.97;5050255;28;20065;-74
2022/10/05 01:28:32;;;;;;;13.52;6.70;;;;;;;11.47;100.00;98701.97;5044426;28;20503;-75
2022/10/05 01:31:06;;;;;;;17.13;7.03;;;;;;;11.47;100.00;98701.97;5033408;28;20053;-75
2022/10/05 01:33:39;;;;;;;16.17;6.68;;;;;;;11.47;100.00;98701.97;5033671;28;20045;-75
2022/10/05 01:36:10;;;;;;;14.93;6.97;;;;;;;11.47;100.00;98701.97;5032289;28;20049;-74
2022/10/05 01:38:44;;;;;;;16.30;7.22;;;;;;;11.47;100.00;98701.97;5052094;28;20045;-74
2022/10/05 01:41:20;;;;;;;18.38;7.68;;;;;;;11.47;100.00;98701.97;5052122;28;20045;-75
2022/10/05 01:43:52;;;;;;;14.65;7.00;;;;;;;11.47;100.00;98701.97;5051780;28;20113;-75
2022/10/05 01:46:25;;;;;;;14.32;7.25;;;;;;;11.47;100.00;98701.97;5053268;27;20041;-75
2022/10/05 01:49:19;;;;;;;15.48;7.07;;;;;;;11.47;100.00;98701.97;5053337;27;20045;-75
2022/10/05 01:51:52;;;;;;;21.05;7.32;;;;;;;11.47;100.00;98701.97;5052073;27;20061;-74
2022/10/05 01:54:29;;;;;;;19.75;7.60;;;;;;;11.47;100.00;98701.97;5051796;28;20052;-74
2022/10/05 01:57:02;;;;;;;14.93;7.10;;;;;;;11.47;100.00;98701.97;5051256;28;20452;-75
2022/10/05 01:59:41;;;;;;;18.55;6.88;;;;;;;11.47;100.00;98701.97;5051557;28;20045;-74
2022/10/05 02:02:12;;;;;;;16.25;7.10;;;;;;;11.47;100.00;98701.97;5051551;28;20052;-74
2022/10/05 02:04:41;;;;;;;15.50;7.35;;;;;;;11.47;100.00;98701.97;5051683;28;20049;-75
2022/10/05 02:07:13;;;;;;;14.43;7.75;;;;;;;11.47;100.00;98701.97;5051699;28;20493;-75
2022/10/05 02:09:45;;;;;;;18.70;7.60;;;;;;;11.47;100.00;98701.97;5052096;28;20679;-75
2022/10/05 02:12:15;;;;;;;16.42;7.95;;;;;;;11.47;100.00;98701.97;5051045;28;20041;-74
2022/10/05 02:14:46;;;;;;;19.30;8.43;;;;;;;11.47;100.00;98701.97;5050674;28;20393;-75
2022/10/05 02:17:16;;;;;;;15.93;8.30;;;;;;;11.47;100.00;98701.97;5050894;28;20067;-75
2022/10/05 02:19:47;;;;;;;18.83;8.00;;;;;;;11.47;100.00;98701.97;5051923;28;20499;-75
2022/10/05 02:22:17;;;;;;;19.50;8.57;;;;;;;11.47;100.00;98701.97;5052347;27;20092;-74
2022/10/05 02:24:48;;;;;;;17.35;8.30;;;;;;;11.47;100.00;98701.97;5052545;28;20113;-75
2022/10/05 02:27:19;;;;;;;14.45;7.50;;;;;;;11.47;100.00;98701.97;5051007;28;20052;-75
2022/10/05 02:29:49;;;;;;;18.05;7.93;;;;;;;11.47;100.00;98701.97;5051112;28;20400;-75
2022/10/05 02:32:21;;;;;;;15.38;7.80;;;;;;;11.47;100.00;98701.97;5050884;28;20044;-75
2022/10/05 02:34:49;;;;;;;18.48;8.10;;;;;;;11.47;100.00;98701.97;5051211;28;20132;-75
2022/10/05 02:37:23;;;;;;;18.40;7.93;;;;;;;11.47;100.00;98701.97;5050899;28;20045;-74
2022/10/05 02:40:12;;;;;;;16.08;7.72;;;;;;;11.47;100.00;98701.97;5051064;28;20049;-75
2022/10/05 02:42:45;;;;;;;20.77;7.18;;;;;;;11.47;100.00;98701.97;5051010;28;20048;-75
2022/10/05 02:45:23;;;;;;;20.52;7.38;;;;;;;11.47;100.00;98701.97;5051465;28;20052;-75
2022/10/05 02:47:55;;;;;;;20.17;7.65;;;;;;;11.47;100.00;98701.97;5051446;28;20072;-74
2022/10/05 02:50:26;;;;;;;16.88;7.35;;;;;;;11.47;100.00;98701.97;5051869;28;20049;-75
2022/10/05 02:52:59;;;;;;;18.35;6.95;;;;;;;11.47;100.00;98701.97;5050619;28;20052;-75
2022/10/05 02:55:32;;;;;;;16.98;8.02;;;;;;;11.47;100.00;98701.97;5050543;28;20049;-75
2022/10/05 02:58:05;;;;;;;17.02;7.35;;;;;;;11.47;100.00;98701.97;5050571;28;20130;-75
2022/10/05 03:00:37;;;;;;;18.40;8.70;;;;;;;11.47;100.00;98701.97;5050528;28;20392;-75
2022/10/05 03:03:08;;;;;;;17.13;7.53;;;;;;;11.47;100.00;98701.97;5050971;28;20101;-74
2022/10/05 03:05:41;;;;;;;14.25;7.10;;;;;;;11.47;100.00;98701.97;5050747;28;20041;-75
2022/10/05 03:08:15;;;;;;;16.80;7.22;;;;;;;11.47;100.00;98701.97;5050674;28;20053;-74
2022/10/05 03:10:48;;;;;;;20.58;7.72;;;;;;;11.47;100.00;98701.97;5052443;28;20048;-75
2022/10/05 03:13:21;;;;;;;20.95;7.97;;;;;;;11.47;100.00;98701.97;5050991;28;20510;-74
2022/10/05 03:16:09;;;;;;;17.35;8.02;;;;;;;11.47;100.00;98701.97;5051211;28;20041;-75
2022/10/05 03:18:47;;;;;;;16.27;7.15;;;;;;;11.47;100.00;98701.97;5050732;28;20125;-75
2022/10/05 03:21:25;;;;;;;16.55;8.23;;;;;;;11.47;100.00;98701.97;5050434;28;20048;-74
2022/10/05 03:24:05;;;;;;;21.13;8.82;;;;;;;11.47;100.00;98701.97;5050563;28;20045;-75
2022/10/05 03:26:39;;;;;;;17.15;7.78;;;;;;;11.47;100.00;98701.97;5049875;28;20045;-75
2022/10/05 03:29:12;;;;;;;17.73;8.43;;;;;;;11.47;100.00;98701.97;5049141;28;20098;-74
2022/10/05 03:31:45;;;;;;;16.00;8.13;;;;;;;11.47;100.00;98701.97;5051511;28;20056;-75
2022/10/05 03:34:17;;;;;;;21.25;8.80;;;;;;;11.47;100.00;98701.97;5051940;28;20479;-74
2022/10/05 03:36:47;;;;;;;19.42;7.85;;;;;;;11.47;100.00;98701.97;5049992;28;20072;-75
2022/10/05 03:39:19;;;;;;;18.02;9.07;;;;;;;11.47;100.00;98701.97;5050293;27;20076;-75
2022/10/05 03:41:49;;;;;;;17.65;8.50;;;;;;;11.47;100.00;98701.97;5050681;28;20049;-74
2022/10/05 03:44:26;;;;;;;16.10;7.22;;;;;;;11.47;100.00;98701.97;5050178;28;20388;-75
2022/10/05 03:47:08;;;;;;;14.95;7.88;;;;;;;11.47;100.00;98701.97;5050239;28;20062;-75
2022/10/05 03:49:49;;;;;;;16.25;7.78;;;;;;;11.47;100.00;98701.97;5051494;28;20056;-75
2022/10/05 03:52:20;;;;;;;17.02;7.70;;;;;;;11.47;100.00;98701.97;5049388;28;20483;-74
2022/10/05 03:54:50;;;;;;;20.05;8.20;;;;;;;11.47;100.00;98701.97;5051513;28;20041;-75
2022/10/05 03:57:19;;;;;;;16.52;8.25;;;;;;;11.47;100.00;98701.97;5049570;28;20060;-74
2022/10/05 03:59:54;;;;;;;19.02;9.02;;;;;;;11.47;100.00;98701.97;5049659;28;20442;-75
2022/10/05 04:02:26;;;;;;;22.73;9.35;;;;;;;11.47;100.00;98701.97;5049782;28;20484;-75
2022/10/05 04:04:56;;;;;;;17.73;8.88;;;;;;;11.47;100.00;98701.97;5049757;28;20045;-75
2022/10/05 04:07:32;;;;;;;16.70;9.38;;;;;;;11.47;100.00;98701.97;5051142;28;20427;-75
2022/10/05 04:10:01;;;;;;;26.73;9.77;;;;;;;11.47;100.00;98701.97;5050215;28;20048;-75
2022/10/05 04:12:34;;;;;;;19.15;8.50;;;;;;;11.47;100.00;98701.97;5049754;28;20495;-75
2022/10/05 04:15:04;;;;;;;18.25;9.20;;;;;;;11.47;100.00;98701.97;5051024;28;20515;-75
2022/10/05 04:17:38;;;;;;;18.05;9.75;;;;;;;11.47;100.00;98701.97;5053226;28;20049;-75
2022/10/05 04:20:10;;;;;;;24.33;11.20;;;;;;;11.47;100.00;98701.97;5054941;28;20403;-74
2022/10/05 04:22:39;;;;;;;23.08;12.77;;;;;;;11.47;100.00;98701.97;5052690;28;20052;-75
2022/10/05 04:25:14;;;;;;;28.58;14.20;;;;;;;11.47;100.00;98701.97;5053175;28;20041;-74
2022/10/05 04:27:45;;;;;;;26.10;11.20;;;;;;;11.47;100.00;98701.97;5052935;28;20138;-75
2022/10/05 04:30:14;;;;;;;21.98;11.13;;;;;;;11.47;100.00;98701.97;5053140;28;20048;-74
2022/10/05 04:32:44;;;;;;;23.20;10.68;;;;;;;11.47;100.00;98701.97;5049491;28;20056;-74
2022/10/05 04:35:36;;;;;;;25.42;13.10;;;;;;;11.47;100.00;98701.97;5049420;28;20466;-75
2022/10/05 04:38:22;;;;;;;27.60;12.73;;;;;;;11.47;100.00;98701.97;4986864;28;20057;-74
2022/10/05 04:40:59;;;;;;;22.07;12.57;;;;;;;11.47;100.00;98701.97;4989577;28;20061;-75
2022/10/05 04:43:36;;;;;;;24.88;11.98;;;;;;;11.47;100.00;98701.97;4987445;28;20054;-75
2022/10/05 04:46:20;;;;;;;22.80;11.50;;;;;;;11.47;100.00;98701.97;4989571;28;20405;-75
2022/10/05 04:49:03;;;;;;;22.20;11.98;;;;;;;11.47;100.00;98701.97;4988776;28;20628;-74
2022/10/05 04:51:37;;;;;;;22.77;12.70;;;;;;;11.47;100.00;98701.97;4988550;28;20076;-75
2022/10/05 04:54:14;;;;;;;22.30;11.93;;;;;;;11.47;100.00;98701.97;4987721;28;20129;-75
2022/10/05 04:56:44;;;;;;;24.17;12.40;;;;;;;11.47;100.00;98701.97;4988027;28;20066;-75
2022/10/05 04:59:31;;;;;;;23.48;12.88;;;;;;;11.47;100.00;98701.97;4987526;28;20050;-75
2022/10/05 05:02:05;;;;;;;29.50;14.32;;;;;;;11.47;100.00;98701.97;4987002;28;20536;-74
2022/10/05 05:04:49;;;;;;;23.42;11.85;;;;;;;11.47;100.00;98701.97;4988116;28;20075;-74
2022/10/05 05:07:27;;;;;;;23.92;13.25;;;;;;;11.47;100.00;98701.97;4987562;28;20050;-75
2022/10/05 05:10:19;;;;;;;24.00;13.68;;;;;;;11.47;100.00;98701.97;4987646;28;20047;-75
2022/10/05 05:12:54;;;;;;;25.27;14.80;;;;;;;11.47;100.00;98701.97;4992827;28;20050;-75
2022/10/05 05:15:28;;;;;;;31.58;17.15;;;;;;;11.47;100.00;98701.97;5026669;28;20064;-75
2022/10/05 05:18:10;;;;;;;27.70;15.15;;;;;;;11.47;100.00;98701.97;5045353;28;20056;-75
2022/10/05 05:20:51;;;;;;;24.83;14.05;;;;;;;11.47;100.00;98701.97;5035746;28;20044;-75
2022/10/05 05:23:22;;;;;;;25.45;14.85;;;;;;;11.47;100.00;98701.97;5052128;28;20495;-75
2022/10/05 05:25:57;;;;;;;25.58;14.48;;;;;;;11.47;100.00;98701.97;5045191;28;20072;-75
2022/10/05 05:28:31;;;;;;;25.42;13.55;;;;;;;11.47;100.00;98701.97;5033062;28;20137;-75
2022/10/05 05:31:03;;;;;;;25.42;13.50;;;;;;;11.47;100.00;98701.97;5032268;28;20046;-75
2022/10/05 05:33:39;;;;;;;21.42;12.05;;;;;;;11.47;100.00;98701.97;5033777;28;20408;-75
2022/10/05 05:36:37;;;;;;;24.92;12.85;;;;;;;11.47;100.00;98701.97;5032304;28;20106;-75
2022/10/05 05:39:16;;;;;;;24.98;13.25;;;;;;;11.47;100.00;98701.97;5036247;27;20079;-75
2022/10/05 05:41:50;;;;;;;23.58;12.40;;;;;;;11.47;100.00;98701.97;5051810;28;20044;-74
2022/10/05 05:44:21;;;;;;;23.25;13.32;;;;;;;11.47;100.00;98701.97;5053243;28;20045;-75
2022/10/05 05:46:54;;;;;;;24.00;12.55;;;;;;;11.47;100.00;98701.97;5053444;28;20048;-75
2022/10/05 05:49:25;;;;;;;20.73;12.48;;;;;;;11.47;100.00;98701.97;5051625;28;20052;-75
2022/10/05 05:51:57;;;;;;;20.48;11.63;;;;;;;11.47;100.00;98701.97;5051410;28;20127;-75
2022/10/05 05:54:31;;;;;;;21.95;11.63;;;;;;;11.47;100.00;98701.97;5051713;28;20045;-75
2022/10/05 05:57:06;;;;;;;17.60;9.88;;;;;;;11.47;100.00;98701.97;5052468;28;20060;-75
2022/10/05 05:59:44;;;;;;;19.58;10.13;;;;;;;11.47;100.00;98701.97;5052887;28;20045;-75
2022/10/05 06:02:13;;;;;;;18.58;9.15;;;;;;;11.47;100.00;98701.97;5051661;28;20055;-74
2022/10/05 06:04:44;;;;;;;18.83;8.80;;;;;;;11.47;100.00;98701.97;5051394;28;20153;-75
2022/10/05 06:07:16;;;;;;;19.48;9.15;;;;;;;11.47;100.00;98701.97;5052305;28;20128;-75
2022/10/05 06:09:46;;;;;;;18.88;8.63;;;;;;;11.47;100.00;98701.97;5051581;28;20053;-75
2022/10/05 06:12:16;;;;;;;19.88;9.38;;;;;;;11.47;100.00;98701.97;5051643;28;20506;-75
2022/10/05 06:14:47;;;;;;;15.57;8.82;;;;;;;11.47;100.00;98701.97;5051463;28;20041;-75
2022/10/05 06:17:17;;;;;;;19.73;9.73;;;;;;;11.47;100.00;98701.97;5051617;28;20045;-75
2022/10/05 06:19:46;;;;;;;18.98;8.77;;;;;;;11.47;100.00;98701.97;5051389;28;20045;-75
2022/10/05 06:22:21;;;;;;;17.17;8.25;;;;;;;11.47;100.00;98701.97;5051259;28;20437;-75
2022/10/05 06:24:59;;;;;;;18.33;8.40;;;;;;;11.47;100.00;98701.97;5051405;28;20045;-75
2022/10/05 06:27:33;;;;;;;19.42;8.40;;;;;;;11.47;100.00;98701.97;5052934;28;20556;-75
2022/10/05 06:30:07;;;;;;;21.00;8.23;;;;;;;11.47;100.00;98701.97;5053535;28;20045;-75
2022/10/05 06:32:42;;;;;;;18.80;7.95;;;;;;;11.47;100.00;98701.97;5051100;28;20388;-75
2022/10/05 06:35:19;;;;;;;19.77;7.82;;;;;;;11.47;100.00;98701.97;5051136;28;20514;-75
2022/10/05 06:37:59;;;;;;;16.55;7.93;;;;;;;11.47;100.00;98701.97;5042688;28;20048;-74
2022/10/05 06:40:39;;;;;;;21.90;8.10;;;;;;;11.47;100.00;98701.97;5042815;28;20492;-75
2022/10/05 06:43:20;;;;;;;16.75;8.07;;;;;;;11.47;100.00;98701.97;5051760;28;20101;-75
2022/10/05 06:45:57;;;;;;;19.02;7.82;;;;;;;11.47;100.00;98701.97;5050960;28;20045;-75
2022/10/05 06:48:45;;;;;;;19.20;7.97;;;;;;;11.47;100.00;98701.97;5046290;28;20055;-75
2022/10/05 06:51:22;;;;;;;43.17;15.73;;;;;;;11.47;100.00;98701.97;5038877;28;21215;-75
2022/10/05 06:53:59;;;;;;;27.55;12.15;;;;;;;11.47;100.00;98701.97;5038665;28;20153;-75
2022/10/05 06:56:31;;;;;;;20.25;8.60;;;;;;;11.47;100.00;98701.97;5047747;28;20511;-76
2022/10/05 06:59:03;;;;;;;17.77;8.95;;;;;;;11.47;100.00;98701.97;5046335;28;20445;-75
2022/10/05 07:01:39;;;;;;;19.88;8.60;;;;;;;11.47;100.00;98701.97;5041539;28;20058;-75
2022/10/05 07:04:18;;;;;;;17.42;9.00;;;;;;;11.47;100.00;98701.97;5042354;28;20049;-75
2022/10/05 07:06:51;;;;;;;19.25;8.98;;;;;;;11.47;100.00;98701.97;5043774;28;20101;-75
2022/10/05 07:09:29;;;;;;;18.67;8.70;;;;;;;11.47;100.00;98701.97;5044954;28;20097;-75
2022/10/05 07:12:08;;;;;;;24.83;10.73;;;;;;;11.47;100.00;98701.97;5046919;28;20053;-75
2022/10/05 07:14:48;;;;;;;16.95;8.70;;;;;;;11.47;100.00;98701.97;5047000;28;20052;-75
2022/10/05 07:17:27;;;;;;;20.63;9.45;;;;;;;11.47;100.00;98701.97;5045615;28;20037;-75
2022/10/05 07:19:58;;;;;;;16.33;8.52;;;;;;;11.47;100.00;98701.97;5030653;28;20056;-75
2022/10/05 07:22:39;;;;;;;17.70;8.68;;;;;;;11.47;100.00;98701.97;5046882;28;20080;-75
2022/10/05 07:25:10;;;;;;;18.35;8.77;;;;;;;11.47;100.00;98701.97;5047736;28;20044;-75
2022/10/05 07:27:43;;;;;;;17.27;7.95;;;;;;;11.47;100.00;98701.97;5046349;28;20049;-75
2022/10/05 07:30:13;;;;;;;24.77;8.52;;;;;;;11.47;100.00;98701.97;5046488;28;20045;-75
2022/10/05 07:32:45;;;;;;;32.00;8.75;;;;;;;11.47;100.00;98701.97;5046693;28;20045;-75
2022/10/05 07:38:04;;;;;;;13.43;7.03;;;;;;;11.47;100.00;98701.97;5046608;28;20071;-75
2022/10/05 07:40:38;;;;;;;17.02;7.60;;;;;;;11.47;100.00;98701.97;5046346;28;20117;-75
2022/10/05 07:43:16;;;;;;;17.20;7.05;;;;;;;11.47;100.00;98701.97;5046487;28;20049;-75
2022/10/05 07:45:46;;;;;;;15.73;6.22;;;;;;;11.47;100.00;98701.97;5047343;27;20514;-75
2022/10/05 07:48:18;;;;;;;14.38;6.90;;;;;;;11.47;100.00;98701.97;5043128;27;20446;-74
2022/10/05 07:50:56;;;;;;;17.98;7.80;;;;;;;11.47;100.00;98701.97;5041794;28;20105;-75
2022/10/05 07:53:27;;;;;;;18.77;7.30;;;;;;;11.47;100.00;98701.97;5045729;28;20052;-75
2022/10/05 07:55:59;;;;;;;14.70;7.10;;;;;;;11.47;100.00;98701.97;5038773;28;20050;-76
2022/10/05 07:58:30;;;;;;;17.77;7.07;;;;;;;11.47;100.00;98701.97;5030155;28;20053;-75
2022/10/05 08:01:08;;;;;;;13.35;6.90;;;;;;;11.47;100.00;98701.97;5031038;28;20600;-76
2022/10/05 08:03:44;;;;;;;14.60;6.80;;;;;;;11.47;100.00;98701.97;5036923;28;20048;-79
2022/10/05 08:06:24;;;;;;;19.02;7.03;;;;;;;11.47;100.00;98701.97;5035240;28;20045;-75
2022/10/05 08:08:55;;;;;;;15.90;6.72;;;;;;;11.47;100.00;98701.97;5049018;28;20087;-76
2022/10/05 08:11:28;;;;;;;16.45;6.20;;;;;;;11.47;100.00;98701.97;5032416;28;20049;-75
2022/10/05 08:14:02;;;;;;;34.08;7.35;;;;;;;11.47;100.00;98701.97;5032797;28;20045;-75
2022/10/05 08:16:32;;;;;;;19.98;6.95;;;;;;;11.47;100.00;98701.97;5046269;28;20064;-75
2022/10/05 08:19:04;;;;;;;19.30;6.78;;;;;;;11.47;100.00;98701.97;5046806;28;20053;-75
2022/10/05 08:21:35;;;;;;;16.45;7.10;;;;;;;11.47;100.00;98701.97;5045269;28;20049;-74
2022/10/05 08:24:10;;;;;;;22.92;10.27;;;;;;;11.47;100.00;98701.97;5047467;27;20041;-75
2022/10/05 08:26:41;;;;;;;20.38;9.43;;;;;;;11.47;100.00;98701.97;5045980;28;20105;-75
2022/10/05 08:29:16;;;;;;;14.15;6.47;;;;;;;11.47;100.00;98701.97;5035574;28;20061;-75
2022/10/05 08:31:47;;;;;;;16.08;6.45;;;;;;;11.47;100.00;98701.97;5043006;28;20132;-75
2022/10/05 08:34:22;;;;;;;20.75;6.47;;;;;;;11.47;100.00;98701.97;5042102;28;20053;-75
2022/10/05 08:36:55;;;;;;;16.63;6.82;;;;;;;11.47;100.00;98701.97;5039997;28;20078;-75
2022/10/05 08:39:25;;;;;;;21.45;7.22;;;;;;;11.47;100.00;98701.97;5039232;28;20045;-75
2022/10/05 08:42:35;;;;;;;21.75;6.90;;;;;;;11.47;100.00;98701.97;5038697;28;20045;-75
2022/10/05 08:45:31;;;;;;;16.38;6.75;;;;;;;11.47;100.00;98701.97;5023609;27;20495;-75
2022/10/05 08:48:09;;;;;;;14.25;5.80;;;;;;;11.47;100.00;98701.97;4983829;28;20813;-75
2022/10/05 08:50:53;;;;;;;16.23;6.05;;;;;;;11.47;100.00;98701.97;4983957;28;20077;-74
2022/10/05 08:53:34;;;;;;;13.93;5.97;;;;;;;11.47;100.00;98701.97;4984032;28;20559;-74
2022/10/05 08:56:29;;;;;;;14.95;5.80;;;;;;;11.47;100.00;98701.97;4983811;28;20047;-75
2022/10/05 08:59:15;;;;;;;14.43;5.63;;;;;;;11.47;100.00;98701.97;4984585;28;20065;-75
2022/10/05 09:02:00;;;;;;;15.45;5.75;;;;;;;11.47;100.00;98701.97;4981037;28;20043;-74
2022/10/05 09:04:38;;;;;;;14.23;5.53;;;;;;;11.47;100.00;98701.97;4987077;28;20046;-75
2022/10/05 09:07:12;;;;;;;15.50;5.70;;;;;;;11.47;100.00;98701.97;4987279;28;20054;-75
2022/10/05 09:10:28;;;;;;;14.40;5.78;;;;;;;11.47;100.00;98701.97;4988060;28;20061;-75
2022/10/05 09:13:26;;;;;;;20.90;5.60;;;;;;;11.47;100.00;98701.97;4960993;28;20051;-75
2022/10/05 09:16:11;;;;;;;17.15;5.38;;;;;;;11.47;100.00;98701.97;4986350;28;20061;-76
2022/10/05 09:19:21;;;;;;;17.23;5.82;;;;;;;11.47;100.00;98701.97;4986412;28;20069;-75
2022/10/05 09:21:57;;;;;;;11.52;5.22;;;;;;;11.47;100.00;98701.97;5009351;28;20116;-75
2022/10/05 09:24:28;;;;;;;13.43;5.22;;;;;;;11.47;100.00;98701.97;5008590;28;20777;-74
2022/10/05 09:27:02;;;;;;;11.90;5.28;;;;;;;11.47;100.00;98701.97;5068781;28;20060;-75
2022/10/05 09:30:04;;;;;;;13.38;5.13;;;;;;;11.47;100.00;98701.97;5073722;28;20546;-75
2022/10/05 09:32:53;;;;;;;14.32;5.57;;;;;;;11.47;100.00;98701.97;5062900;28;20542;-75
2022/10/05 09:35:41;;;;;;;14.13;5.82;;;;;;;11.47;100.00;98701.97;5069522;28;20060;-75
2022/10/05 09:38:25;;;;;;;15.63;5.43;;;;;;;11.47;100.00;98701.97;5054139;28;20432;-75
2022/10/05 09:41:21;;;;;;;17.17;5.63;;;;;;;11.47;100.00;98701.97;5062301;28;20044;-75
2022/10/05 09:44:08;;;;;;;14.02;5.43;;;;;;;11.47;100.00;98701.97;5062696;28;20041;-76
2022/10/05 09:47:13;;;;;;;18.23;5.57;;;;;;;11.47;100.00;98701.97;5059996;28;20105;-76
2022/10/05 09:50:07;;;;;;;14.85;5.50;;;;;;;11.47;100.00;98701.97;4992538;28;20046;-74
2022/10/05 09:53:04;;;;;;;19.98;4.95;;;;;;;11.47;100.00;98701.97;5010421;28;20041;-73
2022/10/05 09:56:10;;;;;;;11.38;4.97;;;;;;;11.47;100.00;98701.97;5001911;28;20125;-75
2022/10/05 09:58:58;;;;;;;14.73;5.18;;;;;;;11.47;100.00;98701.97;4985901;28;20051;-74
2022/10/05 10:01:41;;;;;;;11.90;5.18;;;;;;;11.47;100.00;98701.97;4981905;28;20065;-74
2022/10/05 10:04:28;;;;;;;12.68;4.80;;;;;;;11.47;100.00;98701.97;4978831;28;20042;-74
2022/10/05 10:07:30;;;;;;;13.00;4.38;;;;;;;11.47;100.00;98701.97;4980704;28;20137;-74
2022/10/05 10:10:39;;;;;;;21.02;4.75;;;;;;;11.47;100.00;98701.97;4983718;28;20046;-75
2022/10/05 10:13:30;;;;;;;13.10;4.30;;;;;;;11.47;100.00;98701.97;5001445;28;20061;-76
2022/10/05 10:16:11;;;;;;;17.48;5.32;;;;;;;11.47;100.00;98701.97;5000175;28;20090;-74
2022/10/05 10:19:18;;;;;;;13.75;4.50;;;;;;;11.47;100.00;98701.97;4999721;28;20101;-74
2022/10/05 10:22:20;;;;;;;12.93;4.53;;;;;;;11.47;100.00;98701.97;4958801;28;20055;-74
2022/10/05 10:25:01;;;;;;;10.98;4.22;;;;;;;11.47;100.00;98701.97;4960993;28;20043;-75
2022/10/05 10:27:53;;;;;;;13.63;4.68;;;;;;;11.47;100.00;98701.97;4917631;29;20048;-75
2022/10/05 10:30:44;;;;;;;20.25;5.10;;;;;;;11.47;100.00;98701.97;4916904;28;20050;-75
2022/10/05 10:33:46;;;;;;;13.77;5.10;;;;;;;11.47;100.00;98701.97;4916340;29;20048;-74
2022/10/05 10:36:17;;;;;;;18.15;4.63;;;;;;;11.47;100.00;98701.97;4984213;28;20391;-74
2022/10/05 10:38:53;;;;;;;11.10;4.18;;;;;;;11.47;100.00;98701.97;4983776;28;20069;-74
2022/10/05 10:41:41;;;;;;;11.75;4.38;;;;;;;11.47;100.00;98701.97;4985449;28;20810;-75
2022/10/05 10:44:48;;;;;;;10.30;4.30;;;;;;;11.47;100.00;98701.97;4985770;28;20047;-75
2022/10/05 10:47:44;;;;;;;14.13;4.20;;;;;;;11.47;100.00;98701.97;4981501;28;20112;-75
2022/10/05 10:50:54;;;;;;;13.13;4.68;;;;;;;11.47;100.00;98701.97;4948789;28;20055;-75
2022/10/05 10:53:46;;;;;;;16.20;6.05;;;;;;;11.47;100.00;98701.97;5017011;28;20057;-75
2022/10/05 10:56:49;;;;;;;11.25;4.85;;;;;;;11.47;100.00;98701.97;5033881;28;20038;-75
2022/10/05 10:59:54;;;;;;;10.10;4.38;;;;;;;11.47;100.00;98701.97;4969996;28;20638;-75
2022/10/05 11:02:35;;;;;;;14.45;4.85;;;;;;;11.47;100.00;98701.97;4961262;28;20059;-75
2022/10/05 11:05:28;;;;;;;11.48;4.70;;;;;;;11.47;100.00;98701.97;4964057;28;20055;-75
2022/10/05 11:08:12;;;;;;;12.77;4.85;;;;;;;11.47;100.00;98701.97;4964718;28;20054;-75
2022/10/05 11:11:03;;;;;;;9.85;4.43;;;;;;;11.47;100.00;98701.97;4969499;28;20057;-75
2022/10/05 11:13:51;;;;;;;12.70;4.68;;;;;;;11.47;100.00;98701.97;4961508;28;20120;-76
2022/10/05 11:16:53;;;;;;;11.18;5.00;;;;;;;11.47;100.00;98701.97;4966165;28;20167;-75
2022/10/05 11:20:02;;;;;;;12.52;5.20;;;;;;;11.47;100.00;98701.97;4940294;28;20066;-75
2022/10/05 11:22:38;;;;;;;15.10;5.30;;;;;;;11.47;100.00;98701.97;4973325;28;20043;-74
2022/10/05 11:25:26;;;;;;;11.90;4.82;;;;;;;11.47;100.00;98701.97;4962794;28;20062;-75
2022/10/05 11:28:20;;;;;;;10.85;4.53;;;;;;;11.47;100.00;98701.97;4959314;28;20517;-75
2022/10/05 11:31:01;;;;;;;11.35;4.90;;;;;;;11.47;100.00;98701.97;4951608;28;20109;-75
2022/10/05 11:34:10;;;;;;;12.75;5.07;;;;;;;11.47;100.00;98701.97;4963400;28;20055;-75
2022/10/05 11:37:14;;;;;;;13.63;5.00;;;;;;;11.47;100.00;98701.97;5041093;28;20450;-75
2022/10/05 11:39:44;;;;;;;10.93;4.35;;;;;;;11.47;100.00;98701.97;5041715;28;20124;-75
2022/10/05 11:42:48;;;;;;;11.13;4.45;;;;;;;11.47;100.00;98701.97;5038578;28;20045;-75
2022/10/05 11:45:36;;;;;;;14.00;4.80;;;;;;;11.47;100.00;98701.97;5040007;28;20044;-75
2022/10/05 11:48:33;;;;;;;14.27;4.63;;;;;;;11.47;100.00;98701.97;5037824;28;20042;-74
2022/10/05 11:51:22;;;;;;;11.70;4.15;;;;;;;11.47;100.00;98701.97;5043750;28;20045;-76
2022/10/05 11:53:56;;;;;;;12.05;4.53;;;;;;;11.47;100.00;98701.97;5037680;28;20045;-75
2022/10/05 11:56:27;;;;;;;8.82;4.20;;;;;;;11.47;100.00;98701.97;5045973;28;20052;-75
2022/10/05 11:58:59;;;;;;;10.05;4.30;;;;;;;11.47;100.00;98701.97;5046339;27;20309;-75
2022/10/05 12:01:30;;;;;;;9.57;4.05;;;;;;;11.47;100.00;98701.97;5044530;28;20857;-75
2022/10/05 12:04:05;;;;;;;13.30;4.90;;;;;;;11.47;100.00;98701.97;5037435;28;20049;-74
2022/10/05 12:06:53;;;;;;;10.95;4.50;;;;;;;11.47;100.00;98701.97;5025753;28;20056;-75
2022/10/05 12:09:31;;;;;;;10.77;4.38;;;;;;;15.38;87.22;100380.06;5029331;28;20377;-75
2022/10/05 12:12:06;;;;;;;16.83;4.70;;;;;;;15.53;87.04;100378.13;5036438;28;20090;-75